LFMH/EBU METAR and TAF weather

Enter ICAO airport designator
Station Type Date Time Source
LFMH METAR 2022/12/04 11:30 UTC NOAA

LFMH 041130Z AUTO 27003KT 230V300 4700 -RA BR FEW005/// SCT009/// OVC014/// ///CB 04/03 Q1009


Station Type Date Time Source
LFMH Decoded METAR 2022/12/04 11:30 UTC NOAA

St-Etienne Boutheon, France (LFMH) 45-32N 004-18E 402M
Dec 04, 2022 - 06:30 AM EST / 2022.12.04 1130 UTC
Wind: from the W (270 degrees) at 3 MPH (3 KT) (direction variable):0
Visibility: 2 mile(s):0
Sky conditions: overcast
Weather: light rain; mist; Cumulonimbus clouds observed
Temperature: 39 F (4 C)
Dew Point: 37 F (3 C)
Relative Humidity: 93%
Pressure (altimeter): 29.80 in. Hg (1009 hPa)
ob: LFMH 041130Z AUTO 27003KT 230V300 4700 -RA BR FEW005/// SCT009/// OVC014/// ///CB 04/03 Q1009
cycle: 11

Station Type Date Time Source
LFMH TAF 2021/06/16 19:09 UTC NOAA

TAF LFMH 161901Z 1619/1712 CNL

Example: see airport list